createdAt,value
2018-09-21T00:00:32.089Z,48.03
2018-09-21T00:01:04.105Z,48.03
2018-09-21T00:01:36.239Z,48.03
2018-09-21T00:02:08.323Z,48.13
2018-09-21T00:02:40.397Z,47.84
2018-09-21T00:03:12.421Z,48.13
2018-09-21T00:03:44.513Z,48.13
2018-09-21T00:04:16.670Z,48.13
2018-09-21T00:04:48.736Z,48.03
2018-09-21T00:05:20.834Z,48.13
2018-09-21T00:05:52.888Z,48.13
2018-09-21T00:06:24.914Z,48.03
2018-09-21T00:06:57.020Z,48.13
2018-09-21T00:07:29.122Z,48.13
2018-09-21T00:08:01.200Z,48.13
2018-09-21T00:08:33.295Z,48.13
2018-09-21T00:09:05.420Z,47.94
2018-09-21T00:09:37.473Z,48.13
2018-09-21T00:10:09.467Z,48.03
2018-09-21T00:10:41.530Z,48.03
2018-09-21T00:11:13.618Z,48.03
2018-09-21T00:11:45.687Z,48.03
2018-09-21T00:12:17.772Z,48.03
2018-09-21T00:12:49.774Z,48.23
2018-09-21T00:13:21.891Z,48.13
2018-09-21T00:13:53.982Z,48.03
2018-09-21T00:14:25.998Z,48.03
2018-09-21T00:14:58.089Z,48.23
2018-09-21T00:15:30.149Z,48.23
2018-09-21T00:16:02.223Z,48.23
2018-09-21T00:16:34.317Z,48.23
2018-09-21T00:17:06.382Z,48.13
2018-09-21T00:17:38.458Z,48.13
2018-09-21T00:18:10.517Z,48.32
2018-09-21T00:18:42.587Z,48.23
2018-09-21T00:19:14.625Z,48.23
2018-09-21T00:19:46.697Z,48.13
2018-09-21T00:20:18.916Z,48.13
2018-09-21T00:20:51.100Z,48.32
2018-09-21T00:21:23.300Z,48.23
2018-09-21T00:21:55.377Z,48.23
2018-09-21T00:22:27.568Z,48.23
2018-09-21T00:22:59.659Z,48.23
2018-09-21T00:23:31.816Z,48.23
2018-09-21T00:24:03.960Z,48.32
2018-09-21T00:24:36.030Z,48.23
2018-09-21T00:25:08.131Z,48.23
2018-09-21T00:25:40.157Z,48.42
2018-09-21T00:26:12.202Z,48.23
2018-09-21T00:26:44.293Z,48.23
2018-09-21T00:27:16.307Z,48.23
2018-09-21T00:27:48.383Z,48.3
2018-09-21T00:28:20.548Z,48.21
2018-09-21T00:28:52.554Z,48.32
2018-09-21T00:29:24.627Z,48.32
2018-09-21T00:29:56.695Z,48.32
2018-09-21T00:30:28.775Z,48.23
2018-09-21T00:31:00.808Z,48.23
2018-09-21T00:31:32.887Z,48.23
2018-09-21T00:32:05.015Z,48.21
2018-09-21T00:32:37.122Z,48.32
2018-09-21T00:33:09.222Z,48.23
2018-09-21T00:33:41.289Z,48.03
2018-09-21T00:34:13.290Z,48.21
2018-09-21T00:34:45.420Z,48.23
2018-09-21T00:35:17.513Z,48.23
2018-09-21T00:35:49.583Z,48.23
2018-09-21T00:36:21.674Z,48.23
2018-09-21T00:36:53.745Z,48.32
2018-09-21T00:37:25.813Z,48.23
2018-09-21T00:37:57.981Z,48.23
2018-09-21T00:38:30.043Z,48.23
2018-09-21T00:39:02.094Z,48.23
2018-09-21T00:39:34.144Z,48.13
2018-09-21T00:40:06.231Z,48.32
2018-09-21T00:40:38.239Z,48.32
2018-09-21T00:41:10.301Z,48.13
2018-09-21T00:41:42.357Z,48.23
2018-09-21T00:42:14.427Z,48.32
2018-09-21T00:42:46.566Z,48.32
2018-09-21T00:43:18.640Z,48.3
2018-09-21T00:43:50.684Z,48.13
2018-09-21T00:44:22.760Z,48.32
2018-09-21T00:44:54.847Z,48.23
2018-09-21T00:45:26.898Z,48.32
2018-09-21T00:45:58.992Z,48.32
2018-09-21T00:46:31.112Z,48.32
2018-09-21T00:47:03.263Z,48.3
2018-09-21T00:47:35.298Z,48.42
2018-09-21T00:48:07.346Z,48.32
2018-09-21T00:48:39.408Z,48.21
2018-09-21T00:49:11.471Z,48.39
2018-09-21T00:49:43.559Z,48.32
2018-09-21T00:50:15.609Z,48.32
2018-09-21T00:50:47.647Z,48.32
2018-09-21T00:51:19.714Z,48.39
2018-09-21T00:51:51.783Z,48.32
2018-09-21T00:52:23.866Z,48.21
2018-09-21T00:52:55.940Z,48.3
2018-09-21T00:53:28.003Z,48.32
2018-09-21T00:54:00.038Z,48.3
2018-09-21T00:54:32.114Z,48.42
2018-09-21T00:55:04.199Z,48.39
2018-09-21T00:55:36.235Z,48.32
2018-09-21T00:56:08.326Z,48.49
2018-09-21T00:56:40.394Z,48.42
2018-09-21T00:57:12.432Z,48.32
2018-09-21T00:57:44.555Z,48.52
2018-09-21T00:58:16.645Z,48.42
2018-09-21T00:58:48.686Z,48.13
2018-09-21T00:59:20.774Z,48.39
2018-09-21T00:59:52.812Z,48.42
2018-09-21T01:00:24.985Z,48.39
2018-09-21T01:00:57.071Z,48.32
2018-09-21T01:01:29.090Z,48.32
2018-09-21T01:02:01.152Z,48.49
2018-09-21T01:02:33.233Z,48.39
2018-09-21T01:03:06.213Z,48.39
2018-09-21T01:03:38.246Z,48.39
2018-09-21T01:04:10.312Z,48.61
2018-09-21T01:04:42.394Z,48.42
2018-09-21T01:05:14.453Z,48.39
2018-09-21T01:05:46.548Z,48.39
2018-09-21T01:06:18.639Z,48.32
2018-09-21T01:06:50.732Z,48.42
2018-09-21T01:07:22.828Z,48.21
2018-09-21T01:07:54.826Z,48.49
2018-09-21T01:08:26.901Z,48.49
2018-09-21T01:08:58.981Z,48.42
2018-09-21T01:09:30.989Z,48.52
2018-09-21T01:10:03.093Z,48.52
2018-09-21T01:10:35.113Z,48.49
2018-09-21T01:11:07.177Z,48.49
2018-09-21T01:11:39.232Z,48.49
2018-09-21T01:12:11.299Z,48.52
2018-09-21T01:12:43.311Z,48.39
2018-09-21T01:13:16.173Z,48.39
2018-09-21T01:13:48.248Z,48.39
2018-09-21T01:14:20.266Z,48.39
2018-09-21T01:14:52.277Z,48.39
2018-09-21T01:15:24.331Z,48.42
2018-09-21T01:15:56.410Z,48.39
2018-09-21T01:16:28.488Z,48.52
2018-09-21T01:17:00.561Z,48.39
2018-09-21T01:17:32.617Z,48.49
2018-09-21T01:18:04.709Z,48.3
2018-09-21T01:18:36.785Z,48.59
2018-09-21T01:19:08.882Z,48.49
2018-09-21T01:19:40.956Z,48.39
2018-09-21T01:20:13.054Z,48.49
2018-09-21T01:20:45.119Z,48.3
2018-09-21T01:21:17.179Z,48.59
2018-09-21T01:21:49.221Z,48.52
2018-09-21T01:22:21.268Z,48.61
2018-09-21T01:22:53.352Z,48.59
2018-09-21T01:23:25.433Z,48.39
2018-09-21T01:23:57.649Z,48.59
2018-09-21T01:24:29.803Z,48.39
2018-09-21T01:25:01.813Z,48.3
2018-09-21T01:25:33.838Z,48.39
2018-09-21T01:26:05.909Z,48.39
2018-09-21T01:26:38.044Z,48.39
2018-09-21T01:27:10.124Z,48.61
2018-09-21T01:27:42.153Z,48.3
2018-09-21T01:28:14.183Z,48.49
2018-09-21T01:28:46.315Z,48.39
2018-09-21T01:29:18.459Z,48.49
2018-09-21T01:29:50.673Z,48.3
2018-09-21T01:30:22.727Z,48.49
2018-09-21T01:30:54.772Z,48.39
2018-09-21T01:31:26.806Z,48.49
2018-09-21T01:31:58.855Z,48.59
2018-09-21T01:32:30.882Z,48.49
2018-09-21T01:33:02.967Z,48.3
2018-09-21T01:33:35.026Z,48.3
2018-09-21T01:34:07.039Z,48.49
2018-09-21T01:34:39.072Z,48.3
2018-09-21T01:35:11.164Z,48.39
2018-09-21T01:35:43.216Z,48.49
2018-09-21T01:36:15.319Z,48.59
2018-09-21T01:36:47.373Z,48.69
2018-09-21T01:37:19.446Z,48.39
2018-09-21T01:37:51.512Z,48.49
2018-09-21T01:38:23.570Z,48.59
2018-09-21T01:38:55.644Z,48.69
2018-09-21T01:39:27.720Z,48.79
2018-09-21T01:39:59.786Z,48.69
2018-09-21T01:40:32.525Z,48.39
2018-09-21T01:41:04.620Z,48.69
2018-09-21T01:41:37.974Z,48.39
2018-09-21T01:42:10.052Z,48.39
2018-09-21T01:42:42.131Z,48.79
2018-09-21T01:43:14.244Z,48.79
2018-09-21T01:43:46.302Z,48.79
2018-09-21T01:44:18.361Z,48.69
2018-09-21T01:44:50.413Z,48.59
2018-09-21T01:45:22.470Z,48.69
2018-09-21T01:45:54.510Z,48.49
2018-09-21T01:46:26.604Z,48.79
2018-09-21T01:46:58.651Z,48.69
2018-09-21T01:47:30.772Z,48.69
2018-09-21T01:48:02.837Z,48.59
2018-09-21T01:48:34.918Z,48.79
2018-09-21T01:49:07.047Z,48.49
2018-09-21T01:49:39.139Z,48.79
2018-09-21T01:50:11.225Z,48.59
2018-09-21T01:50:43.267Z,48.59
2018-09-21T01:51:15.316Z,48.69
2018-09-21T01:51:47.353Z,48.59
2018-09-21T01:52:19.442Z,48.59
2018-09-21T01:52:51.526Z,48.59
2018-09-21T01:53:23.561Z,48.79
2018-09-21T01:53:55.668Z,48.79
2018-09-21T01:54:27.767Z,48.79
2018-09-21T01:54:59.868Z,48.69
2018-09-21T01:55:31.995Z,48.69
2018-09-21T01:56:04.026Z,48.59
2018-09-21T01:56:36.082Z,48.79
2018-09-21T01:57:08.213Z,48.59
2018-09-21T01:57:40.279Z,48.79
2018-09-21T01:58:12.358Z,48.79
2018-09-21T01:58:44.405Z,48.69
2018-09-21T01:59:16.427Z,48.79
2018-09-21T01:59:48.589Z,48.69
2018-09-21T02:00:21.599Z,48.79
2018-09-21T02:00:53.648Z,48.79
2018-09-21T02:01:25.768Z,48.79
2018-09-21T02:01:57.867Z,48.69
2018-09-21T02:02:29.937Z,48.79
2018-09-21T02:03:02.057Z,48.59
2018-09-21T02:03:34.091Z,48.79
2018-09-21T02:04:06.167Z,48.69
2018-09-21T02:04:38.270Z,48.69
2018-09-21T02:05:10.367Z,48.69
2018-09-21T02:05:42.529Z,48.69
2018-09-21T02:06:14.671Z,48.59
2018-09-21T02:06:46.760Z,48.59
2018-09-21T02:07:18.846Z,48.88
2018-09-21T02:07:50.926Z,48.69
2018-09-21T02:08:23.054Z,48.79
2018-09-21T02:08:55.152Z,48.69
2018-09-21T02:09:27.198Z,48.79
2018-09-21T02:09:59.273Z,48.79
2018-09-21T02:10:31.440Z,48.69
2018-09-21T02:11:03.469Z,48.59
2018-09-21T02:11:35.544Z,48.79
2018-09-21T02:12:07.614Z,48.88
2018-09-21T02:12:39.672Z,48.79
2018-09-21T02:13:11.823Z,48.97
2018-09-21T02:13:43.887Z,48.79
2018-09-21T02:14:15.947Z,48.97
2018-09-21T02:14:48.002Z,48.88
2018-09-21T02:15:20.094Z,48.88
2018-09-21T02:15:52.185Z,48.79
2018-09-21T02:16:24.305Z,48.79
2018-09-21T02:16:56.361Z,48.79
2018-09-21T02:17:28.447Z,48.88
2018-09-21T02:18:00.512Z,48.79
2018-09-21T02:18:32.633Z,48.88
2018-09-21T02:19:04.656Z,48.88
2018-09-21T02:19:36.753Z,48.59
2018-09-21T02:20:08.824Z,48.88
2018-09-21T02:20:40.881Z,48.69
2018-09-21T02:21:13.096Z,48.88
2018-09-21T02:21:45.238Z,48.59
2018-09-21T02:22:17.288Z,48.79
2018-09-21T02:22:49.358Z,48.97
2018-09-21T02:23:21.422Z,48.97
2018-09-21T02:23:54.071Z,48.97
2018-09-21T02:24:26.198Z,48.79
2018-09-21T02:24:58.310Z,48.97
2018-09-21T02:25:30.352Z,48.97
2018-09-21T02:26:02.420Z,48.88
2018-09-21T02:26:34.492Z,48.97
2018-09-21T02:27:06.736Z,48.97
2018-09-21T02:27:38.841Z,49.07
2018-09-21T02:28:10.912Z,48.88
2018-09-21T02:28:42.984Z,48.88
2018-09-21T02:29:15.003Z,48.88
2018-09-21T02:29:47.050Z,49.07
2018-09-21T02:30:19.159Z,48.88
2018-09-21T02:30:51.229Z,48.79
2018-09-21T02:31:23.329Z,48.97
2018-09-21T02:31:55.430Z,48.97
2018-09-21T02:32:27.476Z,48.88
2018-09-21T02:32:59.573Z,48.97
2018-09-21T02:33:31.638Z,48.97
2018-09-21T02:34:03.710Z,48.88
2018-09-21T02:34:35.809Z,48.97
2018-09-21T02:35:07.874Z,48.97
2018-09-21T02:35:40.102Z,48.97
2018-09-21T02:36:12.143Z,48.97
2018-09-21T02:36:44.217Z,48.97
2018-09-21T02:37:16.293Z,48.97
2018-09-21T02:37:48.377Z,48.97
2018-09-21T02:38:20.453Z,48.97
2018-09-21T02:38:52.532Z,48.97
2018-09-21T02:39:24.582Z,48.97
2018-09-21T02:39:56.726Z,48.79
2018-09-21T02:40:28.823Z,49.07
2018-09-21T02:41:00.968Z,48.97
2018-09-21T02:41:33.174Z,48.97
2018-09-21T02:42:05.509Z,48.88
2018-09-21T02:42:37.567Z,49.07
2018-09-21T02:43:09.721Z,49.17
2018-09-21T02:43:41.799Z,49.17
2018-09-21T02:44:13.833Z,48.88
2018-09-21T02:44:45.880Z,49.07
2018-09-21T02:45:17.905Z,49.17
2018-09-21T02:45:49.968Z,49.17
2018-09-21T02:46:22.003Z,49.07
2018-09-21T02:46:54.040Z,49.17
2018-09-21T02:47:26.056Z,48.97
2018-09-21T02:47:58.090Z,49.07
2018-09-21T02:48:30.150Z,49.17
2018-09-21T02:49:02.354Z,48.97
2018-09-21T02:49:34.506Z,49.17
2018-09-21T02:50:06.525Z,48.88
2018-09-21T02:50:38.543Z,49.07
2018-09-21T02:51:10.666Z,49.07
2018-09-21T02:51:42.790Z,48.69
2018-09-21T02:52:15.792Z,49.17
2018-09-21T02:52:47.838Z,49.17
2018-09-21T02:53:19.878Z,48.97
2018-09-21T02:53:52.052Z,48.88
2018-09-21T02:54:24.152Z,48.97
2018-09-21T02:54:56.184Z,48.88
2018-09-21T02:55:28.249Z,49.07
2018-09-21T02:56:00.321Z,48.97
2018-09-21T02:56:32.433Z,48.88
2018-09-21T02:57:04.576Z,48.88
2018-09-21T02:57:36.772Z,48.88
2018-09-21T02:58:08.900Z,49.17
2018-09-21T02:58:40.964Z,48.97
2018-09-21T02:59:12.960Z,49.17
2018-09-21T02:59:45.065Z,49.07
2018-09-21T03:00:17.143Z,49.17
2018-09-21T03:00:49.475Z,49.27
2018-09-21T03:01:22.159Z,49.17
2018-09-21T03:01:54.233Z,49.17
2018-09-21T03:02:26.266Z,49.17
2018-09-21T03:02:58.315Z,49.07
2018-09-21T03:03:30.419Z,49.17
2018-09-21T03:04:02.486Z,49.17
2018-09-21T03:04:34.594Z,49.07
2018-09-21T03:05:06.687Z,48.97
2018-09-21T03:05:38.747Z,49.07
2018-09-21T03:06:10.877Z,49.27
2018-09-21T03:06:42.927Z,48.97
2018-09-21T03:07:15.070Z,49.17
2018-09-21T03:07:47.142Z,48.97
2018-09-21T03:08:19.149Z,49.17
2018-09-21T03:08:51.200Z,49.37
2018-09-21T03:09:23.246Z,49.27
2018-09-21T03:09:55.318Z,49.27
2018-09-21T03:10:27.478Z,49.17
2018-09-21T03:10:59.550Z,49.17
2018-09-21T03:11:31.547Z,49.27
2018-09-21T03:12:03.569Z,48.97
2018-09-21T03:12:35.677Z,49.07
2018-09-21T03:13:07.801Z,49.17
2018-09-21T03:13:39.978Z,49.27
2018-09-21T03:14:12.127Z,49.27
2018-09-21T03:14:44.322Z,49.27
2018-09-21T03:15:16.333Z,49.27
2018-09-21T03:15:48.382Z,49.17
2018-09-21T03:16:20.454Z,49.17
2018-09-21T03:16:52.513Z,49.46
2018-09-21T03:17:24.566Z,49.37
2018-09-21T03:17:56.612Z,49.37
2018-09-21T03:18:28.668Z,49.07
2018-09-21T03:19:00.729Z,49.37
2018-09-21T03:19:32.805Z,49.27
2018-09-21T03:20:04.895Z,49.46
2018-09-21T03:20:36.941Z,49.37
2018-09-21T03:21:09.023Z,49.37
2018-09-21T03:21:41.116Z,49.46
2018-09-21T03:22:13.184Z,49.17
2018-09-21T03:22:45.288Z,49.46
2018-09-21T03:23:17.352Z,49.37
2018-09-21T03:23:49.426Z,49.17
2018-09-21T03:24:21.473Z,49.46
2018-09-21T03:24:53.572Z,49.37
2018-09-21T03:25:25.631Z,49.27
2018-09-21T03:25:57.715Z,49.27
2018-09-21T03:26:29.859Z,49.07
2018-09-21T03:27:01.944Z,49.37
2018-09-21T03:27:34.034Z,49.46
2018-09-21T03:28:06.083Z,49.17
2018-09-21T03:28:38.233Z,49.17
2018-09-21T03:29:10.370Z,49.27
2018-09-21T03:29:42.544Z,49.46
2018-09-21T03:30:14.562Z,49.17
2018-09-21T03:30:46.612Z,49.27
2018-09-21T03:31:18.695Z,49.37
2018-09-21T03:31:50.782Z,49.27
2018-09-21T03:32:22.985Z,49.17
2018-09-21T03:32:55.124Z,49.27
2018-09-21T03:33:27.233Z,49.37
2018-09-21T03:33:59.255Z,49.27
2018-09-21T03:34:31.318Z,49.37
2018-09-21T03:35:03.477Z,49.37
2018-09-21T03:35:36.213Z,49.27
2018-09-21T03:36:08.300Z,49.27
2018-09-21T03:36:40.325Z,49.55
2018-09-21T03:37:12.410Z,49.37
2018-09-21T03:37:44.491Z,49.27
2018-09-21T03:38:16.498Z,49.37
2018-09-21T03:38:48.633Z,49.37
2018-09-21T03:39:20.698Z,49.27
2018-09-21T03:39:52.781Z,49.17
2018-09-21T03:40:24.845Z,49.46
2018-09-21T03:40:56.935Z,49.37
2018-09-21T03:41:28.979Z,49.46
2018-09-21T03:42:01.040Z,49.27
2018-09-21T03:42:33.109Z,49.27
2018-09-21T03:43:05.166Z,49.46
2018-09-21T03:43:37.195Z,49.46
2018-09-21T03:44:09.276Z,49.27
2018-09-21T03:44:41.475Z,49.27
2018-09-21T03:45:13.614Z,49.37
2018-09-21T03:45:45.696Z,49.27
2018-09-21T03:46:17.769Z,49.46
2018-09-21T03:46:49.848Z,49.37
2018-09-21T03:47:21.929Z,49.27
2018-09-21T03:47:53.993Z,49.65
2018-09-21T03:48:26.089Z,49.37
2018-09-21T03:48:58.122Z,49.27
2018-09-21T03:49:30.209Z,49.65
2018-09-21T03:50:02.279Z,49.65
2018-09-21T03:50:34.354Z,49.75
2018-09-21T03:51:06.428Z,49.65
2018-09-21T03:51:38.542Z,49.65
2018-09-21T03:52:10.642Z,49.27
2018-09-21T03:52:42.699Z,49.75
2018-09-21T03:53:14.783Z,49.27
2018-09-21T03:53:46.845Z,49.46
2018-09-21T03:54:18.933Z,49.27
2018-09-21T03:54:50.996Z,49.27
2018-09-21T03:55:23.729Z,49.37
2018-09-21T03:55:55.774Z,49.65
2018-09-21T03:56:27.873Z,49.37
2018-09-21T03:56:59.890Z,49.17
2018-09-21T03:57:31.966Z,49.17
2018-09-21T03:58:04.038Z,49.27
2018-09-21T03:58:36.103Z,49.55
2018-09-21T03:59:08.243Z,49.85
2018-09-21T03:59:40.249Z,49.27
2018-09-21T04:00:12.335Z,49.75
2018-09-21T04:00:44.480Z,49.46
2018-09-21T04:01:16.701Z,49.17
2018-09-21T04:01:48.762Z,49.95
2018-09-21T04:02:20.844Z,49.85
2018-09-21T04:02:52.896Z,49.55
2018-09-21T04:03:25.776Z,49.46
2018-09-21T04:03:57.823Z,49.65
2018-09-21T04:04:29.906Z,49.55
2018-09-21T04:05:02.017Z,49.27
2018-09-21T04:05:34.118Z,49.65
2018-09-21T04:06:06.324Z,49.65
2018-09-21T04:06:38.358Z,49.17
2018-09-21T04:07:10.404Z,49.85
2018-09-21T04:07:42.388Z,49.46
2018-09-21T04:08:14.430Z,49.75
2018-09-21T04:08:46.445Z,49.27
2018-09-21T04:09:18.525Z,49.37
2018-09-21T04:09:50.604Z,49.46
2018-09-21T04:10:22.683Z,49.46
2018-09-21T04:10:54.788Z,49.46
2018-09-21T04:11:26.900Z,49.65
2018-09-21T04:11:58.976Z,49.55
2018-09-21T04:12:31.031Z,49.46
2018-09-21T04:13:03.080Z,49.65
2018-09-21T04:13:35.123Z,49.65
2018-09-21T04:14:07.220Z,49.55
2018-09-21T04:14:39.364Z,49.55
2018-09-21T04:15:11.494Z,49.65
2018-09-21T04:15:43.545Z,49.55
2018-09-21T04:16:15.580Z,49.55
2018-09-21T04:16:47.650Z,50.04
2018-09-21T04:17:19.698Z,49.55
2018-09-21T04:17:51.877Z,49.37
2018-09-21T04:18:24.037Z,50.04
2018-09-21T04:18:57.170Z,49.37
2018-09-21T04:19:29.213Z,49.75
2018-09-21T04:20:01.277Z,49.95
2018-09-21T04:20:33.333Z,49.37
2018-09-21T04:21:05.389Z,49.85
2018-09-21T04:21:37.476Z,49.85
2018-09-21T04:22:09.515Z,49.85
2018-09-21T04:22:41.535Z,49.85
2018-09-21T04:23:13.648Z,49.95
2018-09-21T04:23:45.684Z,49.73
2018-09-21T04:24:17.776Z,49.65
2018-09-21T04:24:49.840Z,49.95
2018-09-21T04:25:21.843Z,49.55
2018-09-21T04:25:53.905Z,49.75
2018-09-21T04:26:25.977Z,49.75
2018-09-21T04:26:58.072Z,49.65
2018-09-21T04:27:30.107Z,49.85
2018-09-21T04:28:02.104Z,49.85
2018-09-21T04:28:34.209Z,49.85
2018-09-21T04:29:06.326Z,49.95
2018-09-21T04:29:38.478Z,49.75
2018-09-21T04:30:10.509Z,49.85
2018-09-21T04:30:42.589Z,49.65
2018-09-21T04:31:14.616Z,49.65
2018-09-21T04:31:46.769Z,49.75
2018-09-21T04:32:18.859Z,49.75
2018-09-21T04:32:50.938Z,49.55
2018-09-21T04:33:23.027Z,49.65
2018-09-21T04:33:55.092Z,49.55
2018-09-21T04:34:27.236Z,49.55
2018-09-21T04:34:59.279Z,49.55
2018-09-21T04:35:31.353Z,49.85
2018-09-21T04:36:03.498Z,49.85
2018-09-21T04:36:35.593Z,49.95
2018-09-21T04:37:07.643Z,49.85
2018-09-21T04:37:39.825Z,49.95
2018-09-21T04:38:11.886Z,49.85
2018-09-21T04:38:43.956Z,49.73
2018-09-21T04:39:16.010Z,49.75
2018-09-21T04:39:48.078Z,49.75
2018-09-21T04:40:20.087Z,49.65
2018-09-21T04:40:52.143Z,49.85
2018-09-21T04:41:24.228Z,49.85
2018-09-21T04:41:56.389Z,49.55
2018-09-21T04:42:28.490Z,49.65
2018-09-21T04:43:00.586Z,49.55
2018-09-21T04:43:32.605Z,49.85
2018-09-21T04:44:04.662Z,49.65
2018-09-21T04:44:36.702Z,49.75
2018-09-21T04:45:08.735Z,49.75
2018-09-21T04:45:40.854Z,49.85
2018-09-21T04:46:12.900Z,49.85
2018-09-21T04:46:44.940Z,49.85
2018-09-21T04:47:17.059Z,49.65
2018-09-21T04:47:49.160Z,49.85
2018-09-21T04:48:21.156Z,49.95
2018-09-21T04:48:53.357Z,49.95
2018-09-21T04:49:25.434Z,49.85
2018-09-21T04:49:57.512Z,49.65
2018-09-21T04:50:29.613Z,49.75
2018-09-21T04:51:01.667Z,49.75
2018-09-21T04:51:33.705Z,49.95
2018-09-21T04:52:05.754Z,49.75
2018-09-21T04:52:37.843Z,49.55
2018-09-21T04:53:09.912Z,49.75
2018-09-21T04:53:42.052Z,49.85
2018-09-21T04:54:14.177Z,49.85
2018-09-21T04:54:46.269Z,49.75
2018-09-21T04:55:18.304Z,49.95
2018-09-21T04:55:50.376Z,49.75
2018-09-21T04:56:22.456Z,49.95
2018-09-21T04:56:54.552Z,49.85
2018-09-21T04:57:27.359Z,49.75
2018-09-21T04:57:59.429Z,49.85
2018-09-21T04:58:31.473Z,50.04
2018-09-21T04:59:03.571Z,50.13
2018-09-21T04:59:35.631Z,49.65
2018-09-21T05:00:07.750Z,49.85
2018-09-21T05:00:39.788Z,50.04
2018-09-21T05:01:11.830Z,49.95
2018-09-21T05:01:43.920Z,49.95
2018-09-21T05:02:15.999Z,49.95
2018-09-21T05:02:48.004Z,50.04
2018-09-21T05:03:20.091Z,50.04
2018-09-21T05:03:52.109Z,50.04
2018-09-21T05:04:24.170Z,50.13
2018-09-21T05:04:56.377Z,49.75
2018-09-21T05:05:28.419Z,49.75
2018-09-21T05:06:00.449Z,49.75
2018-09-21T05:06:32.461Z,50.13
2018-09-21T05:07:04.472Z,50.04
2018-09-21T05:07:36.527Z,49.95
2018-09-21T05:08:08.545Z,49.95
2018-09-21T05:08:40.652Z,50.04
2018-09-21T05:09:12.772Z,49.95
2018-09-21T05:09:44.807Z,50.13
2018-09-21T05:10:16.878Z,49.85
2018-09-21T05:10:48.887Z,50.13
2018-09-21T05:11:20.960Z,50.04
2018-09-21T05:11:52.998Z,50.04
2018-09-21T05:12:25.804Z,50.13
2018-09-21T05:12:57.833Z,49.75
2018-09-21T05:13:29.883Z,50.13
2018-09-21T05:14:02.016Z,49.95
2018-09-21T05:14:34.087Z,50.23
2018-09-21T05:15:06.149Z,49.95
2018-09-21T05:15:38.227Z,50.23
2018-09-21T05:16:10.293Z,50.04
2018-09-21T05:16:42.519Z,50.23
2018-09-21T05:17:14.594Z,50.04
2018-09-21T05:17:46.648Z,50.13
2018-09-21T05:18:19.249Z,50.33
2018-09-21T05:18:51.421Z,50.04
2018-09-21T05:19:23.496Z,49.95
2018-09-21T05:19:55.693Z,50.01
2018-09-21T05:20:27.707Z,50.33
2018-09-21T05:20:59.747Z,50.13
2018-09-21T05:21:31.811Z,50.23
2018-09-21T05:22:03.951Z,50.04
2018-09-21T05:22:36.020Z,50.43
2018-09-21T05:23:08.083Z,50.23
2018-09-21T05:23:40.086Z,50.33
2018-09-21T05:24:12.172Z,50.13
2018-09-21T05:24:44.214Z,50.23
2018-09-21T05:25:16.237Z,50.23
2018-09-21T05:25:48.272Z,49.75
2018-09-21T05:26:20.375Z,49.46
2018-09-21T05:26:52.593Z,50.23
2018-09-21T05:27:24.794Z,50.23
2018-09-21T05:27:56.913Z,50.13
2018-09-21T05:28:28.939Z,50.43
2018-09-21T05:29:01.026Z,50.33
2018-09-21T05:29:33.175Z,50.43
2018-09-21T05:30:05.396Z,50.13
2018-09-21T05:30:37.413Z,50.13
2018-09-21T05:31:09.508Z,50.33
2018-09-21T05:31:41.569Z,50.13
2018-09-21T05:32:13.577Z,50.13
2018-09-21T05:32:45.666Z,50.13
2018-09-21T05:33:17.731Z,49.85
2018-09-21T05:33:49.805Z,50.13
2018-09-21T05:34:21.893Z,50.23
2018-09-21T05:34:53.956Z,50.23
2018-09-21T05:35:26.139Z,50.23
2018-09-21T05:35:58.208Z,50.23
2018-09-21T05:36:31.092Z,50.23
2018-09-21T05:37:03.153Z,50.13
2018-09-21T05:37:35.401Z,50.04
2018-09-21T05:38:07.509Z,50.13
2018-09-21T05:38:39.720Z,50.13
2018-09-21T05:39:11.875Z,49.55
2018-09-21T05:39:43.905Z,50.52
2018-09-21T05:40:16.009Z,50.13
2018-09-21T05:40:48.085Z,49.85
2018-09-21T05:41:20.111Z,49.85
2018-09-21T05:41:52.266Z,50.13
2018-09-21T05:42:24.415Z,50.04
2018-09-21T05:42:56.593Z,50.52
2018-09-21T05:43:28.752Z,49.95
2018-09-21T05:44:00.894Z,49.85
2018-09-21T05:44:32.998Z,50.04
2018-09-21T05:45:05.003Z,50.04
2018-09-21T05:45:37.113Z,50.04
2018-09-21T05:46:09.235Z,50.62
2018-09-21T05:46:41.325Z,50.62
2018-09-21T05:47:17.532Z,50.62
2018-09-21T05:47:49.833Z,49.95
2018-09-21T05:48:21.946Z,50.04
2018-09-21T05:48:54.124Z,49.95
2018-09-21T05:49:26.207Z,50.62
2018-09-21T05:49:58.224Z,50.52
2018-09-21T05:50:30.258Z,50.62
2018-09-21T05:51:02.319Z,50.62
2018-09-21T05:51:34.416Z,49.95
2018-09-21T05:52:06.532Z,50.62
2018-09-21T05:52:38.606Z,50.71
2018-09-21T05:53:10.641Z,50.62
2018-09-21T05:53:43.477Z,50.62
2018-09-21T05:54:15.518Z,50.52
2018-09-21T05:54:47.548Z,50.52
2018-09-21T05:55:19.642Z,50.13
2018-09-21T05:55:51.720Z,50.13
2018-09-21T05:56:23.784Z,50.13
2018-09-21T05:56:56.001Z,50.33
2018-09-21T05:57:28.163Z,50.33
2018-09-21T05:58:00.274Z,50.33
2018-09-21T05:58:32.330Z,50.23
2018-09-21T05:59:04.375Z,50.33
2018-09-21T05:59:36.428Z,49.95
2018-09-21T06:00:08.484Z,50.13
2018-09-21T06:00:41.402Z,49.95
2018-09-21T06:01:13.500Z,50.04
2018-09-21T06:01:45.573Z,50.33
2018-09-21T06:02:17.700Z,50.43
2018-09-21T06:02:49.831Z,50.43
2018-09-21T06:03:21.903Z,49.75
2018-09-21T06:03:54.010Z,50.43
2018-09-21T06:04:26.075Z,49.75
2018-09-21T06:04:58.136Z,50.43
2018-09-21T06:05:30.252Z,50.43
2018-09-21T06:06:02.270Z,49.85
2018-09-21T06:06:34.335Z,50.43
2018-09-21T06:07:06.432Z,50.43
2018-09-21T06:07:38.570Z,50.43
2018-09-21T06:08:10.726Z,49.85
2018-09-21T06:08:42.770Z,49.95
2018-09-21T06:09:14.801Z,50.43
2018-09-21T06:09:46.989Z,50.35
2018-09-21T06:10:19.009Z,50.45
2018-09-21T06:10:51.152Z,50.07
2018-09-21T06:11:23.197Z,50.23
2018-09-21T06:11:55.192Z,50.04
2018-09-21T06:12:27.418Z,50.23
2018-09-21T06:12:59.514Z,50.52
2018-09-21T06:13:31.564Z,49.97
2018-09-21T06:14:03.666Z,50.35
2018-09-21T06:14:35.725Z,50.13
2018-09-21T06:15:07.823Z,50.26
2018-09-21T06:15:39.898Z,50.07
2018-09-21T06:16:12.020Z,49.95
2018-09-21T06:16:44.047Z,50.16
2018-09-21T06:17:16.145Z,50.45
2018-09-21T06:17:48.204Z,50.16
2018-09-21T06:18:20.240Z,50.26
2018-09-21T06:18:52.297Z,50.26
2018-09-21T06:19:24.522Z,50.23
2018-09-21T06:19:56.602Z,50.35
2018-09-21T06:20:28.770Z,50.16
2018-09-21T06:21:00.829Z,50.74
2018-09-21T06:21:32.856Z,50.74
2018-09-21T06:22:04.920Z,50.13
2018-09-21T06:22:44.981Z,50.16
2018-09-21T06:23:09.114Z,50.84
2018-09-21T06:23:41.160Z,50.33
2018-09-21T06:24:13.167Z,50.55
2018-09-21T06:24:45.233Z,50.16
2018-09-21T06:25:17.295Z,50.26
2018-09-21T06:25:49.359Z,50.26
2018-09-21T06:26:21.437Z,50.74
2018-09-21T06:26:53.469Z,50.74
2018-09-21T06:27:25.762Z,50.16
2018-09-21T06:27:57.855Z,50.55
2018-09-21T06:28:29.899Z,50.16
2018-09-21T06:29:01.971Z,50.35
2018-09-21T06:29:34.029Z,50.74
2018-09-21T06:30:06.110Z,50.35
2018-09-21T06:30:38.152Z,50.16
2018-09-21T06:31:10.205Z,50.65
2018-09-21T06:31:42.287Z,50.45
2018-09-21T06:32:14.321Z,50.26
2018-09-21T06:32:46.510Z,50.55
2018-09-21T06:33:18.591Z,50.35
2018-09-21T06:33:50.640Z,50.74
2018-09-21T06:34:22.714Z,50.45
2018-09-21T06:34:54.719Z,50.26
2018-09-21T06:35:26.866Z,50.26
2018-09-21T06:35:59.000Z,50.35
2018-09-21T06:36:31.229Z,50.55
2018-09-21T06:37:03.273Z,50.07
2018-09-21T06:37:35.349Z,50.55
2018-09-21T06:38:07.414Z,50.07
2018-09-21T06:38:39.449Z,50.16
2018-09-21T06:39:11.484Z,50.07
2018-09-21T06:39:43.552Z,50.26
2018-09-21T06:40:15.621Z,50.16
2018-09-21T06:40:47.659Z,50.35
2018-09-21T06:41:19.705Z,50.16
2018-09-21T06:41:51.756Z,50.07
2018-09-21T06:42:24.006Z,50.26
2018-09-21T06:42:56.162Z,50.35
2018-09-21T06:43:28.249Z,50.35
2018-09-21T06:44:00.505Z,50.45
2018-09-21T06:44:32.540Z,50.45
2018-09-21T06:45:04.652Z,50.45
2018-09-21T06:45:36.778Z,50.26
2018-09-21T06:46:08.812Z,50.45
2018-09-21T06:46:40.938Z,50.07
2018-09-21T06:47:13.104Z,50.35
2018-09-21T06:47:45.191Z,50.55
2018-09-21T06:48:17.281Z,50.16
2018-09-21T06:48:49.343Z,50.07
2018-09-21T06:49:21.449Z,50.45
2018-09-21T06:49:53.631Z,50.65
2018-09-21T06:50:25.716Z,50.28
2018-09-21T06:50:57.761Z,50.07
2018-09-21T06:51:29.815Z,50.07
2018-09-21T06:52:01.885Z,50.35
2018-09-21T06:52:33.962Z,50.07
2018-09-21T06:53:06.054Z,50.16
2018-09-21T06:53:38.056Z,50.09
2018-09-21T06:54:10.078Z,50.48